Portada
METAR-TAF:

METAR-TAF

Aeroports :

Manizales, Colòmbia

latitud: 05-01-48N, longitud: 075-27-50W, altitud: 2063 m

Observació

L'informe es va fer fa 2 hores i 39 minuts, a les 16:00 UTC
Vent 5 kt del Oest/Nord-Oest
Temperatura 17°C
Humitat 94%
Pressió 1027 hPa
Visibilitat: 7000 m
Núvols disperses a una alçada de 700 ft
Cel ennuvolat a una alçada de 5000 ft
boira a les proximitats

METAR: SKMZ 141600Z 29005KT 7000 VCFG SCT007 BKN050 17/16 A3034 RMK VCFG/W

Hora: 13:39 (18:39 UTC)


TAF: manca

Observacions i pronòstics meteorològics de més de 4000 aeroports (METAR i TAF).

Les estacions disponibles són els punts grocs i vermells al mapa.

Posi el ratolí al punt desitjat per veure el nom de l'estació.

Feu clic per veure les observacions i els pronòstics meteorològics.

Per canviar el mapa: feu clic els botons verds amb una creu de color negre per apropar; al botó verd amb un guió per allunyar la imatge; o en les fletxes verdes per a mapes adjacents.


METAR-TAF: